ADDS METAR Data INFO
IDs: Format: Raw Decoded Include TAF

Data at: 0318 UTC 20 Jul 2018

KAXA 200315Z AUTO 30004KT 10SM BKN032 OVC047 21/20 A2969 RMK AO2 PWINO
KAXA 200255Z AUTO 31005KT 10SM FEW031 SCT039 BKN046 21/20 A2969 RMK AO2 P0001 PWINO
KAXA 200235Z AUTO 31010KT 10SM FEW039 BKN045 OVC055 21/19 A2968 RMK AO2 PWINO
KAXA 200215Z AUTO 32013G20KT SCT034 BKN042 OVC065 21/20 A2968 RMK AO2 PWINO
KAXA 200155Z AUTO 30012G18KT 10SM SCT032 BKN041 OVC075 22/20 A2967 RMK AO2 PWINO
KAXA 200135Z AUTO 28010KT 10SM FEW060 BKN075 22/20 A2966 RMK AO2 PWINO
KAXA 200115Z AUTO 27008KT 10SM FEW027 BKN060 OVC070 22/20 A2965 RMK AO2 PWINO
KAXA 200055Z AUTO 29011KT 10SM FEW032 SCT055 BKN075 23/20 A2965 RMK AO2 P0049 PWINO
KAXA 200035Z AUTO 00000KT 10SM FEW002 FEW055 BKN070 22/21 A2966 RMK AO2 PWINO
KAXA 200015Z AUTO 28008G15KT 1/2SM +RA BKN002 BKN026 OVC038 21/20 A2967 RMK AO2
KAXA 192355Z AUTO 00000KT 7SM FEW033 SCT043 BKN055 23/21 A2966 RMK AO2 P0004 PWINO
KAXA 192335Z AUTO 00000KT 4SM HZ FEW033 BKN045 BKN060 23/20 A2966 RMK AO2 PWINO
KAXA 192315Z AUTO 34004KT 10SM FEW026 SCT039 BKN075 24/20 A2967 RMK AO2 PWINO
KAXA 192255Z AUTO 32004G11KT 3SM HZ SCT041 BKN055 BKN070 23/20 A2968 RMK AO2 P0002 PWINO
KAXA 192235Z AUTO 28006G11KT 10SM FEW046 SCT055 BKN075 26/19 A2969 RMK AO2 PWINO
KAXA 192215Z AUTO 26009G14KT 10SM FEW060 SCT070 BKN080 26/20 A2969 RMK AO2 PWINO
KAXA 192155Z AUTO 26012KT 10SM FEW036 SCT065 BKN075 25/19 A2970 RMK AO2 PWINO
KAXA 192135Z AUTO 25009G16KT 10SM SCT035 SCT043 SCT060 26/19 A2971 RMK AO2 PWINO
KAXA 192115Z AUTO 27011G17KT 10SM FEW026 SCT030 BKN047 26/20 A2971 RMK AO2 PWINO
KAXA 192055Z AUTO 25016KT 10SM FEW024 OVC047 26/20 A2971 RMK AO2 PWINO
KAXA 192035Z AUTO 27015G21KT 10SM OVC044 25/19 A2971 RMK AO2 PWINO
KAXA 192015Z AUTO 26014G19KT 10SM FEW033 OVC043 25/20 A2972 RMK AO2 PWINO
KAXA 191955Z AUTO 26014KT 10SM SCT021 SCT034 OVC042 24/20 A2972 RMK AO2 P0001 PWINO
KAXA 191935Z AUTO 25009G16KT 9SM SCT021 BKN026 OVC034 23/20 A2973 RMK AO2 PWINO
KAXA 191915Z AUTO 25013G22KT 10SM FEW019 SCT025 BKN033 24/20 A2973 RMK AO2 PWINO
KAXA 191855Z AUTO 25017KT 10SM FEW014 SCT019 BKN026 25/20 A2973 RMK AO2 PWINO
KAXA 191835Z AUTO 18009G16KT 10SM SCT017 BKN030 OVC065 23/21 A2973 RMK AO2 PWINO
KAXA 191815Z AUTO 18014KT 10SM SCT012 BKN018 BKN026 23/21 A2973 RMK AO2 PWINO
KAXA 191755Z AUTO 17012G18KT 9SM BKN013 BKN018 BKN026 21/20 A2974 RMK AO2 PWINO
KAXA 191735Z AUTO 14010G16KT 9SM BKN013 BKN020 21/20 A2973 RMK AO2 PWINO
KAXA 191715Z AUTO 15015G22KT 10SM BKN013 OVC020 22/19 A2973 RMK AO2 PWINO
KAXA 191655Z AUTO 15019G25KT 10SM BKN012 BKN026 BKN030 23/20 A2974 RMK AO2 PWINO
KAXA 191635Z AUTO 16018G25KT 10SM BKN011 BKN025 22/20 A2975 RMK AO2 PWINO
KAXA 191615Z AUTO 15016G23KT 9SM SCT009 BKN013 21/19 A2977 RMK AO2 PWINO
KAXA 191555Z AUTO 16013G20KT 10SM BKN011 21/19 A2978 RMK AO2 PWINO
KAXA 191535Z AUTO 15012G21KT 10SM BKN012 21/19 A2978 RMK AO2 PWINO
KAXA 191515Z AUTO 16012G22KT 10SM SCT010 OVC013 21/19 A2979 RMK AO2 PWINO
KAXA 191455Z AUTO 16016G21KT 10SM OVC012 21/19 A2979 RMK AO2 PWINO
KAXA 191435Z AUTO 15017G22KT 10SM OVC013 21/19 A2979 RMK AO2 PWINO
KAXA 191415Z AUTO 15018G25KT 10SM BKN013 BKN017 OVC022 21/19 A2980 RMK AO2 PWINO
KAXA 191355Z AUTO 15017G23KT 10SM BKN012 BKN023 OVC055 21/19 A2980 RMK AO2 PWINO
KAXA 191335Z AUTO 15016G22KT 10SM OVC012 21/19 A2980 RMK AO2 PWINO
KAXA 191315Z AUTO 16013G19KT 10SM BKN010 BKN014 20/19 A2981 RMK AO2 PWINO
KAXA 191255Z AUTO 16016G24KT 10SM SCT010 BKN013 BKN020 20/19 A2982 RMK AO2 PWINO
KAXA 191235Z AUTO 16018G23KT 10SM BKN008 BKN013 20/19 A2982 RMK AO2 PWINO
KAXA 191215Z AUTO 16018G23KT 10SM BKN009 OVC015 20/19 A2982 RMK AO2 PWINO
KAXA 191155Z AUTO 16017KT 10SM OVC009 20/19 A2982 RMK AO2 P0005 PWINO
KAXA 191135Z AUTO 15016KT 4SM BR SCT007 BKN011 OVC024 20/19 A2983 RMK AO2 PWINO
KAXA 191115Z AUTO 15014G19KT 10SM FEW006 BKN011 OVC026 20/20 A2983 RMK AO2 PWINO
KAXA 191055Z AUTO 14012G17KT 3SM BR FEW002 SCT012 BKN029 21/20 A2984 RMK AO2 P0012 PWINO
KAXA 191035Z AUTO 15012G18KT 10SM FEW028 SCT035 BKN055 21/20 A2985 RMK AO2 PWINO
KAXA 191015Z AUTO 14013KT 10SM SCT035 BKN046 OVC070 21/20 A2985 RMK AO2 PWINO
KAXA 190955Z AUTO 14009G15KT 10SM BKN035 OVC046 21/20 A2986 RMK AO2 PWINO
KAXA 190935Z AUTO 14010KT 10SM OVC036 21/20 A2987 RMK AO2 PWINO
KAXA 190915Z AUTO 15011KT 10SM OVC037 21/20 A2987 RMK AO2 PWINO
KAXA 190855Z AUTO 14010KT 10SM BKN040 BKN047 OVC065 21/20 A2987 RMK AO2 P0007 PWINO
KAXA 190835Z AUTO 16011KT 6SM BR FEW002 BKN055 OVC070 20/19 A2988 RMK AO2 PWINO
KAXA 190815Z AUTO 17014G21KT 2 1/2SM BR FEW002 BKN060 OVC095 21/19 A2989 RMK AO2 PWINO
KAXA 190755Z AUTO 16011KT 10SM FEW055 OVC090 22/18 A2989 RMK AO2 PWINO
KAXA 190735Z AUTO 15012KT 10SM SCT095 22/18 A2990 RMK AO2 PWINO
KAXA 190715Z AUTO 15010KT 10SM FEW060 FEW070 SCT110 22/19 A2990 RMK AO2 PWINO
KAXA 190655Z AUTO 15010KT 10SM SCT060 BKN110 22/19 A2991 RMK AO2 PWINO
KAXA 190635Z AUTO 15007KT 10SM FEW060 22/19 A2992 RMK AO2 PWINO
KAXA 190615Z AUTO 14008KT 10SM CLR 21/19 A2992 RMK AO2 PWINO
KAXA 190555Z AUTO 14008KT 10SM CLR 22/19 A2993 RMK AO2 PWINO
KAXA 190535Z AUTO 14008KT 10SM CLR 22/19 A2993 RMK AO2 PWINO
KAXA 190515Z AUTO 14009KT 10SM CLR 22/19 A2994 RMK AO2 PWINO
KAXA 190455Z AUTO 14009KT 10SM CLR 22/19 A2994 RMK AO2 PWINO
KAXA 190435Z AUTO 13010KT 10SM CLR 22/19 A2995 RMK AO2 PWINO
KAXA 190415Z AUTO 14009KT 10SM CLR 23/19 A2995 RMK AO2 PWINO
KAXA 190355Z AUTO 14008KT 10SM FEW120 23/19 A2996 RMK AO2 PWINO
KAXA 190335Z AUTO 14007KT 10SM CLR 23/19 A2996 RMK AO2 PWINO
KAXA 190315Z AUTO 13006KT 10SM CLR 23/19 A2996 RMK AO2 PWINO
KAXA 190255Z AUTO 13007KT 10SM FEW120 23/19 A2996 RMK AO2 PWINO
KAXA 190235Z AUTO 13005KT 9SM CLR 23/19 A2996 RMK AO2 PWINO
KAXA 190215Z AUTO 13006KT 10SM CLR 24/19 A2996 RMK AO2 PWINO
KAXA 190155Z AUTO 14006KT 10SM FEW120 24/19 A2996 RMK AO2 PWINO
KAXA 190135Z AUTO 13006KT 9SM CLR 25/19 A2996 RMK AO2 PWINO
KAXA 190115Z AUTO 14005KT 10SM CLR 25/19 A2996 RMK AO2 PWINO
KAXA 190055Z AUTO 14005KT 9SM CLR 26/18 A2997 RMK AO2 PWINO
KAXA 190035Z AUTO 13005KT 10SM CLR 27/18 A2997 RMK AO2 PWINO
KAXA 190015Z AUTO 14007KT 9SM CLR 27/18 A2998 RMK AO2 PWINO
KAXA 182355Z AUTO 15008KT 9SM CLR 27/18 A2998 RMK AO2 PWINO
KAXA 182335Z AUTO 14008KT 10SM FEW055 27/17 A2998 RMK AO2 PWINO
KAXA 182315Z AUTO 13007G13KT 10SM FEW050 SCT060 28/17 A2998 RMK AO2 PWINO
KAXA 182255Z AUTO 15009KT 10SM CLR 28/16 A2998 RMK AO2 PWINO
KAXA 182235Z AUTO 13008KT 10SM FEW050 28/17 A2999 RMK AO2 PWINO
KAXA 182215Z AUTO 16009KT 10SM CLR 28/16 A3000 RMK AO2 PWINO
KAXA 182155Z AUTO 15010KT 10SM CLR 29/16 A3000 RMK AO2 PWINO
KAXA 182135Z AUTO 15008KT 10SM CLR 28/16 A3000 RMK AO2 PWINO
KAXA 182115Z AUTO 16006KT 10SM CLR 28/16 A3001 RMK AO2 PWINO
KAXA 182055Z AUTO 16009KT 10SM CLR 29/16 A3001 RMK AO2 PWINO
KAXA 182035Z AUTO 14007KT 10SM CLR 29/15 A3002 RMK AO2 PWINO
KAXA 182015Z AUTO 17007KT 10SM CLR 29/16 A3003 RMK AO2 PWINO
KAXA 181955Z AUTO 13007G13KT 10SM FEW070 29/16 A3004 RMK AO2 PWINO
KAXA 181935Z AUTO 16008KT 10SM CLR 29/17 A3004 RMK AO2 PWINO
KAXA 181915Z AUTO 15009KT 10SM CLR 29/15 A3004 RMK AO2 PWINO
KAXA 181855Z AUTO 17007KT 10SM CLR 28/17 A3005 RMK AO2 PWINO
KAXA 181835Z AUTO 20008KT 10SM CLR 28/16 A3006 RMK AO2 PWINO
KAXA 181815Z AUTO 17006G12KT 10SM CLR 28/17 A3006 RMK AO2 PWINO
KAXA 181755Z AUTO 15005KT 10SM CLR 27/17 A3007 RMK AO2 PWINO
KAXA 181735Z AUTO 17006KT 10SM CLR 27/18 A3007 RMK AO2 PWINO
KAXA 181715Z AUTO 18008KT 10SM CLR 27/19 A3008 RMK AO2 PWINO
KAXA 181655Z AUTO 18007KT 10SM CLR 27/18 A3008 RMK AO2 PWINO
KAXA 181635Z AUTO 18007KT 10SM CLR 27/18 A3008 RMK AO2 PWINO
KAXA 181615Z AUTO 16007KT 10SM CLR 26/17 A3008 RMK AO2 PWINO
KAXA 181555Z AUTO 17006KT 10SM CLR 26/18 A3009 RMK AO2 PWINO
KAXA 181535Z AUTO 17006KT 10SM CLR 25/19 A3009 RMK AO2 PWINO